Time;durP1;ratioP1;P1;durP2;ratioP2;P2;SDS_P1;SDS_P2;PMS_P1;PMS_P2;Temp;Humidity;BMP_temperature;BMP_pressure;BME280_temperature;BME280_humidity;BME280_pressure;Samples;Min_cycle;Max_cycle;Signal;HPM_P1;HPM_P2
2021/12/12 00:00:03;;;;;;;17.73;5.60;;;8.00;99.90;;;;;;5027945;28;20197;-23
2021/12/12 00:02:45;;;;;;;14.83;6.30;;;8.00;99.90;;;;;;5028769;28;20224;-23
2021/12/12 00:05:16;;;;;;;15.07;5.83;;;8.00;99.90;;;;;;4997714;28;20206;-23
2021/12/12 00:07:44;;;;;;;15.33;5.73;;;8.00;99.90;;;;;;5014128;28;20790;-23
2021/12/12 00:10:20;;;;;;;15.30;5.83;;;8.00;99.90;;;;;;5026600;28;20774;-23
2021/12/12 00:13:01;;;;;;;22.40;6.77;;;8.00;99.90;;;;;;5018496;28;20205;-23
2021/12/12 00:15:31;;;;;;;12.40;6.00;;;8.10;99.90;;;;;;5012480;28;20287;-23
2021/12/12 00:18:02;;;;;;;16.53;6.20;;;8.10;99.90;;;;;;5016077;28;20698;-23
2021/12/12 00:20:32;;;;;;;14.50;6.20;;;8.10;99.90;;;;;;5027511;28;20200;-23
2021/12/12 00:23:00;;;;;;;17.63;6.10;;;8.10;99.90;;;;;;5024231;28;20229;-23
2021/12/12 00:25:38;;;;;;;15.57;6.30;;;8.10;99.90;;;;;;5024609;28;20201;-23
2021/12/12 00:28:07;;;;;;;19.37;6.30;;;8.10;99.90;;;;;;5028417;28;20590;-23
2021/12/12 00:30:36;;;;;;;20.87;6.40;;;8.10;99.90;;;;;;5021165;28;20197;-23
2021/12/12 00:33:04;;;;;;;17.17;6.20;;;8.10;99.90;;;;;;5011756;28;20217;-23
2021/12/12 00:35:31;;;;;;;15.03;5.40;;;8.10;99.90;;;;;;5012344;28;20216;-23
2021/12/12 00:38:07;;;;;;;14.37;5.80;;;8.10;99.90;;;;;;5015554;28;20201;-23
2021/12/12 00:40:43;;;;;;;17.40;6.00;;;8.10;99.90;;;;;;5030666;28;20216;-23
2021/12/12 00:43:20;;;;;;;16.13;5.93;;;8.10;99.90;;;;;;5023408;28;20225;-23
2021/12/12 00:45:47;;;;;;;17.17;5.83;;;8.10;99.90;;;;;;5015098;28;20209;-23
2021/12/12 00:48:17;;;;;;;14.57;5.53;;;8.10;99.90;;;;;;5020178;28;20205;-22
2021/12/12 00:50:45;;;;;;;14.57;5.70;;;8.10;99.90;;;;;;5029461;28;20791;-23
2021/12/12 00:53:14;;;;;;;13.83;5.50;;;8.10;99.90;;;;;;5010324;28;20198;-23
2021/12/12 00:55:44;;;;;;;12.77;5.50;;;8.20;99.90;;;;;;5020031;28;20216;-23
2021/12/12 00:58:14;;;;;;;13.87;5.73;;;8.20;99.90;;;;;;5018302;28;20548;-23
2021/12/12 01:00:53;;;;;;;13.50;5.47;;;8.20;99.90;;;;;;5022759;28;20201;-23
2021/12/12 01:03:31;;;;;;;14.93;5.67;;;8.20;99.90;;;;;;5014579;28;20239;-22
2021/12/12 01:06:00;;;;;;;13.87;5.20;;;8.20;99.90;;;;;;5031366;28;20601;-23
2021/12/12 01:08:28;;;;;;;13.53;5.03;;;8.20;99.90;;;;;;5027989;28;20204;-23
2021/12/12 01:11:18;;;;;;;13.93;5.17;;;8.20;99.90;;;;;;5030768;28;20208;-22
2021/12/12 01:13:47;;;;;;;15.93;5.27;;;8.20;99.90;;;;;;5020147;28;20327;-23
2021/12/12 01:17:03;;;;;;;16.40;5.30;;;8.20;99.90;;;;;;5014851;28;20236;-23
2021/12/12 01:19:35;;;;;;;13.97;4.87;;;8.20;99.90;;;;;;5009714;28;20209;-23
2021/12/12 01:22:15;;;;;;;13.60;4.77;;;8.20;99.90;;;;;;5010385;28;20232;-23
2021/12/12 01:24:46;;;;;;;13.80;4.73;;;8.20;99.90;;;;;;5010677;28;20213;-23
2021/12/12 01:27:16;;;;;;;11.70;4.83;;;8.30;99.90;;;;;;5027134;28;20671;-24
2021/12/12 01:29:43;;;;;;;11.40;4.77;;;8.30;99.90;;;;;;5015013;28;20688;-24
2021/12/12 01:32:25;;;;;;;14.77;4.70;;;8.30;99.90;;;;;;5012102;28;20232;-24
2021/12/12 01:34:56;;;;;;;14.13;4.67;;;8.30;99.90;;;;;;5010481;28;20224;-24
2021/12/12 01:40:09;;;;;;;11.80;4.53;;;8.40;99.90;;;;;;5021741;28;20202;-24
2021/12/12 01:42:47;;;;;;;14.30;4.53;;;8.30;99.90;;;;;;5010971;28;20317;-25
2021/12/12 01:45:22;;;;;;;12.60;4.27;;;8.40;99.90;;;;;;5011833;28;20190;-24
2021/12/12 01:47:56;;;;;;;12.00;4.50;;;8.40;99.90;;;;;;5024109;28;20205;-25
2021/12/12 01:50:51;;;;;;;15.00;4.57;;;8.40;99.90;;;;;;5025858;28;20592;-25
2021/12/12 01:53:22;;;;;;;10.47;3.73;;;8.40;99.90;;;;;;5019204;28;20720;-24
2021/12/12 01:56:27;;;;;;;11.87;4.10;;;8.40;99.90;;;;;;5010365;28;20675;-24
2021/12/12 01:59:04;;;;;;;13.33;4.57;;;8.40;99.90;;;;;;5000850;28;20209;-24
2021/12/12 02:01:37;;;;;;;16.47;4.23;;;8.40;99.90;;;;;;5022549;28;20217;-24
2021/12/12 02:04:10;;;;;;;15.03;4.17;;;8.40;99.90;;;;;;5010552;28;20201;-24
2021/12/12 02:06:42;;;;;;;13.60;3.40;;;8.40;99.90;;;;;;5009417;28;20208;-24
2021/12/12 02:09:10;;;;;;;14.93;4.03;;;8.40;99.90;;;;;;5022021;28;20572;-24
2021/12/12 02:11:43;;;;;;;11.37;3.47;;;8.40;99.90;;;;;;5016240;28;20584;-24
2021/12/12 02:14:14;;;;;;;11.93;3.73;;;8.50;99.90;;;;;;5024244;28;20583;-24
2021/12/12 02:16:58;;;;;;;14.17;3.90;;;8.50;99.90;;;;;;5014759;28;20282;-24
2021/12/12 02:19:46;;;;;;;12.27;3.80;;;8.50;99.90;;;;;;5011186;28;20209;-25
2021/12/12 02:36:19;;;;;;;11.73;3.50;;;8.60;99.90;;;;;;5009272;28;20209;-24
2021/12/12 02:38:50;;;;;;;9.87;3.93;;;8.60;99.90;;;;;;5019603;28;20204;-24
2021/12/12 02:41:19;;;;;;;13.20;3.40;;;8.60;99.90;;;;;;5027353;28;20311;-24
2021/12/12 02:43:53;;;;;;;12.60;3.90;;;8.60;99.90;;;;;;5012820;28;20217;-24
2021/12/12 02:46:28;;;;;;;11.13;3.77;;;8.60;99.90;;;;;;5015137;28;20622;-24
2021/12/12 02:49:12;;;;;;;11.13;3.90;;;8.60;99.90;;;;;;5009778;28;20205;-24
2021/12/12 02:51:42;;;;;;;10.80;3.33;;;8.60;99.90;;;;;;5017135;28;20232;-24
2021/12/12 02:54:13;;;;;;;12.47;3.60;;;8.60;99.90;;;;;;5020776;28;20206;-24
2021/12/12 02:56:43;;;;;;;11.57;3.60;;;8.60;99.90;;;;;;5011998;28;20296;-24
2021/12/12 02:59:17;;;;;;;8.40;3.67;;;8.60;99.90;;;;;;5009444;28;20217;-24
2021/12/12 03:01:55;;;;;;;11.03;3.60;;;8.60;99.90;;;;;;5021057;28;20240;-24
2021/12/12 03:04:24;;;;;;;12.30;3.80;;;8.60;99.90;;;;;;5032404;28;20196;-25
2021/12/12 03:06:52;;;;;;;10.20;3.40;;;8.60;99.90;;;;;;5011764;28;20299;-30
2021/12/12 03:09:36;;;;;;;7.97;3.07;;;8.60;99.90;;;;;;5009090;28;20236;-25
2021/12/12 03:12:11;;;;;;;9.97;3.77;;;8.60;99.90;;;;;;5009966;28;20384;-24
2021/12/12 03:14:45;;;;;;;11.87;3.70;;;8.60;99.90;;;;;;5008986;28;20201;-25
2021/12/12 03:17:20;;;;;;;10.87;3.53;;;8.60;99.90;;;;;;5009007;28;20328;-24
2021/12/12 03:19:54;;;;;;;12.40;3.73;;;8.70;99.90;;;;;;5008895;28;20209;-24
2021/12/12 03:22:25;;;;;;;15.87;4.27;;;8.60;99.90;;;;;;5009536;28;20557;-24
2021/12/12 03:24:53;;;;;;;9.80;3.87;;;8.60;99.90;;;;;;5020043;28;20213;-24
2021/12/12 03:27:23;;;;;;;10.47;3.47;;;8.60;99.90;;;;;;5021559;28;20317;-24
2021/12/12 03:29:52;;;;;;;15.97;3.87;;;8.60;99.90;;;;;;5009194;28;20933;-24
2021/12/12 03:32:23;;;;;;;10.20;3.60;;;8.70;99.90;;;;;;5022618;28;20236;-25
2021/12/12 03:34:55;;;;;;;7.73;3.20;;;8.70;99.90;;;;;;5012676;28;20237;-24
2021/12/12 03:37:26;;;;;;;10.13;3.97;;;8.70;99.90;;;;;;5013966;28;20198;-24
2021/12/12 03:39:58;;;;;;;12.07;4.53;;;8.70;99.90;;;;;;5008645;28;20642;-25
2021/12/12 03:42:28;;;;;;;6.67;3.67;;;8.70;99.90;;;;;;5021624;28;20664;-24
2021/12/12 03:44:57;;;;;;;11.73;3.83;;;8.70;99.90;;;;;;5012622;28;20213;-24
2021/12/12 03:47:32;;;;;;;7.93;3.50;;;8.70;99.90;;;;;;5012781;28;20507;-24
2021/12/12 03:50:22;;;;;;;9.00;3.57;;;8.70;99.90;;;;;;5027939;28;20219;-24
2021/12/12 03:52:55;;;;;;;9.30;3.73;;;8.70;99.90;;;;;;5024946;28;20209;-24
2021/12/12 03:55:25;;;;;;;8.63;3.53;;;8.70;99.90;;;;;;5024145;28;20213;-25
2021/12/12 03:57:53;;;;;;;9.37;3.37;;;8.70;99.90;;;;;;5015013;28;20213;-25
2021/12/12 04:00:46;;;;;;;8.57;3.73;;;8.70;99.90;;;;;;5015825;28;20213;-24
2021/12/12 04:03:16;;;;;;;9.47;3.30;;;8.70;99.90;;;;;;5023405;28;20279;-24
2021/12/12 04:10:12;;;;;;;7.23;3.17;;;8.70;99.90;;;;;;5006435;28;20293;-24
2021/12/12 04:12:42;;;;;;;7.50;3.27;;;8.70;99.90;;;;;;5008552;28;20722;-24
2021/12/12 04:15:10;;;;;;;10.50;3.37;;;8.70;99.90;;;;;;5022471;28;20310;-24
2021/12/12 04:17:38;;;;;;;7.17;3.30;;;8.70;99.90;;;;;;5022166;28;20201;-24
2021/12/12 04:20:21;;;;;;;5.37;3.13;;;8.70;99.90;;;;;;5011766;28;20299;-24
2021/12/12 04:22:48;;;;;;;7.67;3.47;;;8.70;99.90;;;;;;5006894;28;20312;-24
2021/12/12 04:25:18;;;;;;;6.40;3.43;;;8.70;99.90;;;;;;5007630;28;20207;-25
2021/12/12 04:27:45;;;;;;;6.50;3.33;;;8.70;99.90;;;;;;5016337;28;20204;-24
2021/12/12 04:30:14;;;;;;;6.57;2.97;;;8.70;99.90;;;;;;5027504;28;20687;-25
2021/12/12 04:32:43;;;;;;;6.27;2.93;;;8.80;99.90;;;;;;5012057;28;20201;-24
2021/12/12 04:35:16;;;;;;;5.43;2.87;;;8.80;99.90;;;;;;5011688;28;20219;-24
2021/12/12 04:37:44;;;;;;;6.23;3.07;;;8.80;99.90;;;;;;5007230;28;20212;-24
2021/12/12 04:40:16;;;;;;;6.43;2.90;;;8.80;99.90;;;;;;5006436;28;20220;-24
2021/12/12 04:42:45;;;;;;;4.73;2.60;;;8.80;99.90;;;;;;5007369;28;20614;-24
2021/12/12 04:45:43;;;;;;;6.77;3.00;;;8.80;99.90;;;;;;5023335;28;20197;-25
2021/12/12 04:51:11;;;;;;;5.03;2.40;;;8.90;99.90;;;;;;5027507;28;20237;-24
2021/12/12 04:53:50;;;;;;;3.73;2.47;;;8.90;99.90;;;;;;5008522;28;20369;-24
2021/12/12 04:56:28;;;;;;;5.80;2.73;;;8.90;99.90;;;;;;5027592;28;20196;-24
2021/12/12 04:59:15;;;;;;;5.87;2.60;;;8.90;99.90;;;;;;5025499;28;20327;-24
2021/12/12 05:01:59;;;;;;;4.37;2.40;;;8.90;99.90;;;;;;5007588;28;20205;-24
2021/12/12 05:05:14;;;;;;;5.67;2.80;;;8.90;99.90;;;;;;5011000;28;20611;-24
2021/12/12 05:07:59;;;;;;;5.87;3.13;;;8.90;99.90;;;;;;5006435;28;20205;-24
2021/12/12 05:10:37;;;;;;;3.87;2.27;;;8.90;99.90;;;;;;5014944;28;20213;-24
2021/12/12 05:13:21;;;;;;;3.97;2.10;;;8.90;99.90;;;;;;5007871;28;20292;-24
2021/12/12 05:15:57;;;;;;;3.80;2.33;;;8.90;99.90;;;;;;5027086;28;20757;-24
2021/12/12 05:18:30;;;;;;;3.50;2.13;;;8.90;99.90;;;;;;5031211;28;20996;-24
2021/12/12 05:21:04;;;;;;;4.67;2.40;;;8.90;99.90;;;;;;5031031;28;20866;-25
2021/12/12 05:23:33;;;;;;;4.07;2.30;;;9.00;99.90;;;;;;5019507;28;20208;-24
2021/12/12 05:26:12;;;;;;;3.13;1.90;;;9.00;99.90;;;;;;5028529;28;20574;-24
2021/12/12 05:28:58;;;;;;;3.83;1.90;;;9.00;99.90;;;;;;5013014;28;20201;-24
2021/12/12 05:31:26;;;;;;;2.60;1.70;;;9.00;99.90;;;;;;5010835;28;20212;-24
2021/12/12 05:33:55;;;;;;;2.10;1.80;;;9.00;99.90;;;;;;5017134;28;20209;-24
2021/12/12 05:36:23;;;;;;;3.23;2.07;;;9.00;99.90;;;;;;5010930;28;20225;-24
2021/12/12 05:38:51;;;;;;;3.17;1.80;;;9.10;99.90;;;;;;5009698;28;20205;-24
2021/12/12 05:41:22;;;;;;;3.13;1.90;;;9.10;99.90;;;;;;5011167;28;20213;-24
2021/12/12 05:43:56;;;;;;;3.23;1.80;;;9.10;99.90;;;;;;5017942;28;20283;-24
2021/12/12 05:46:25;;;;;;;2.93;1.80;;;9.10;99.90;;;;;;5026429;28;20583;-24
2021/12/12 05:48:55;;;;;;;2.93;1.97;;;9.10;99.90;;;;;;5019662;28;20209;-24
2021/12/12 05:51:23;;;;;;;3.23;1.80;;;9.10;99.90;;;;;;5010456;28;20334;-24
2021/12/12 05:53:53;;;;;;;1.63;1.33;;;9.10;99.90;;;;;;5022026;28;20643;-24
2021/12/12 05:56:26;;;;;;;3.10;1.67;;;9.10;99.90;;;;;;5028787;28;20208;-25
2021/12/12 05:58:54;;;;;;;3.87;2.07;;;9.10;99.90;;;;;;5029176;28;20279;-24
2021/12/12 06:01:23;;;;;;;3.37;1.83;;;9.20;99.90;;;;;;5025588;28;20215;-24
2021/12/12 06:03:54;;;;;;;3.07;1.80;;;9.20;99.90;;;;;;5020383;28;20320;-24
2021/12/12 06:06:30;;;;;;;2.90;1.50;;;9.20;99.90;;;;;;5022618;28;20193;-24
2021/12/12 06:09:03;;;;;;;3.67;1.70;;;9.20;99.90;;;;;;5024503;28;20216;-24
2021/12/12 06:11:33;;;;;;;2.50;1.63;;;9.20;99.90;;;;;;5021095;28;20225;-23
2021/12/12 06:14:01;;;;;;;2.73;1.30;;;9.20;99.90;;;;;;5012987;28;20766;-22
2021/12/12 06:16:34;;;;;;;2.90;1.87;;;9.20;99.90;;;;;;5027521;28;20217;-22
2021/12/12 06:19:26;;;;;;;2.40;1.60;;;9.20;99.90;;;;;;5019476;28;20675;-22
2021/12/12 06:21:56;;;;;;;2.17;1.70;;;9.20;99.90;;;;;;5017330;28;20394;-22
2021/12/12 06:24:25;;;;;;;2.77;1.63;;;9.20;99.90;;;;;;5025960;28;20319;-22
2021/12/12 06:26:57;;;;;;;2.50;1.50;;;9.30;99.90;;;;;;5006148;28;20202;-22
2021/12/12 06:29:24;;;;;;;1.83;1.60;;;9.30;99.90;;;;;;5027360;28;20193;-22
2021/12/12 06:31:54;;;;;;;1.63;1.40;;;9.30;99.90;;;;;;5023727;28;20204;-22
2021/12/12 06:34:22;;;;;;;1.43;1.33;;;9.30;99.90;;;;;;5025090;28;20622;-22
2021/12/12 06:36:51;;;;;;;3.03;1.77;;;9.30;99.90;;;;;;5016409;28;20197;-22
2021/12/12 06:39:22;;;;;;;2.50;1.50;;;9.30;99.90;;;;;;5029437;28;20259;-23
2021/12/12 06:41:50;;;;;;;2.03;1.80;;;9.30;99.90;;;;;;5021000;28;20316;-22
2021/12/12 06:44:17;;;;;;;2.30;1.53;;;9.40;99.90;;;;;;5024644;28;20656;-22
2021/12/12 06:46:50;;;;;;;3.80;1.80;;;9.40;99.90;;;;;;5028446;28;20214;-22
2021/12/12 06:49:20;;;;;;;2.90;1.80;;;9.40;99.90;;;;;;5016241;28;20207;-22
2021/12/12 06:51:54;;;;;;;2.90;1.80;;;9.40;99.90;;;;;;5011598;28;20229;-22
2021/12/12 06:54:27;;;;;;;2.53;1.90;;;9.40;99.90;;;;;;5013009;28;20213;-22
2021/12/12 06:56:58;;;;;;;2.20;2.00;;;9.40;99.90;;;;;;5012100;28;20475;-22
2021/12/12 06:59:30;;;;;;;4.10;2.20;;;9.40;99.90;;;;;;5011740;28;20249;-22
2021/12/12 07:02:00;;;;;;;3.50;1.93;;;9.40;99.90;;;;;;5012317;28;20215;-22
2021/12/12 07:04:30;;;;;;;2.50;2.13;;;9.40;99.90;;;;;;5009061;28;20695;-22
2021/12/12 07:07:00;;;;;;;3.50;2.13;;;9.50;99.90;;;;;;5008877;28;20207;-22
2021/12/12 07:09:36;;;;;;;2.90;2.10;;;9.50;99.90;;;;;;5010474;28;20339;-22
2021/12/12 07:12:09;;;;;;;3.37;2.20;;;9.50;99.90;;;;;;5012521;28;20294;-22
2021/12/12 07:14:40;;;;;;;4.10;2.30;;;9.50;99.90;;;;;;5011204;28;20201;-22
2021/12/12 07:17:09;;;;;;;4.33;2.40;;;9.50;99.90;;;;;;5010252;28;20204;-22
2021/12/12 07:19:42;;;;;;;3.27;2.30;;;9.50;99.90;;;;;;5011131;28;20220;-22
2021/12/12 07:22:14;;;;;;;3.27;2.37;;;9.50;99.90;;;;;;5010572;28;20440;-22
2021/12/12 07:24:45;;;;;;;3.63;2.60;;;9.50;99.90;;;;;;5010361;28;20709;-22
2021/12/12 07:27:16;;;;;;;6.30;2.60;;;9.50;99.90;;;;;;5013335;28;20255;-22
2021/12/12 07:29:47;;;;;;;4.93;2.67;;;9.50;99.90;;;;;;5022817;28;20229;-22
2021/12/12 07:32:15;;;;;;;5.90;3.30;;;9.60;99.90;;;;;;5022542;28;20840;-22
2021/12/12 07:34:45;;;;;;;5.73;3.10;;;9.60;99.90;;;;;;5025131;28;20662;-22
2021/12/12 07:37:12;;;;;;;6.33;3.40;;;9.60;99.90;;;;;;5008052;28;20571;-22
2021/12/12 07:39:42;;;;;;;4.30;3.07;;;9.60;99.90;;;;;;5015211;28;20212;-22
2021/12/12 07:42:11;;;;;;;6.83;3.27;;;9.60;99.90;;;;;;4994189;28;20209;-22
2021/12/12 07:44:40;;;;;;;9.33;2.93;;;9.60;99.90;;;;;;5008630;28;20232;-22
2021/12/12 07:47:12;;;;;;;4.70;3.30;;;9.70;99.90;;;;;;5007826;28;20206;-22
2021/12/12 07:49:43;;;;;;;5.43;3.40;;;9.70;99.90;;;;;;5021547;28;20207;-22
2021/12/12 07:52:17;;;;;;;6.10;3.90;;;9.70;99.90;;;;;;5010748;28;20697;-22
2021/12/12 07:54:47;;;;;;;6.67;3.60;;;9.70;99.90;;;;;;5025289;28;20291;-22
2021/12/12 07:57:15;;;;;;;9.93;3.70;;;9.70;99.90;;;;;;5017021;28;20614;-22
2021/12/12 07:59:43;;;;;;;8.10;3.80;;;9.70;99.90;;;;;;5012066;28;20206;-22
2021/12/12 08:02:13;;;;;;;6.07;3.70;;;9.80;99.90;;;;;;5021850;28;20619;-22
2021/12/12 08:04:42;;;;;;;8.53;4.20;;;9.80;99.90;;;;;;5016499;28;20688;-22
2021/12/12 08:07:15;;;;;;;7.97;3.97;;;9.80;99.90;;;;;;5010504;28;20681;-22
2021/12/12 08:09:43;;;;;;;9.50;4.40;;;9.80;99.90;;;;;;5016029;28;20279;-22
2021/12/12 08:12:16;;;;;;;8.53;4.20;;;9.80;99.90;;;;;;5013867;28;20221;-22
2021/12/12 08:14:44;;;;;;;7.30;4.00;;;9.80;99.90;;;;;;5014111;28;20197;-22
2021/12/12 08:17:13;;;;;;;9.57;4.27;;;9.80;99.90;;;;;;5020342;28;20205;-22
2021/12/12 08:19:41;;;;;;;8.03;4.00;;;9.80;99.90;;;;;;5006735;28;20348;-22
2021/12/12 08:22:11;;;;;;;8.63;4.60;;;9.90;99.90;;;;;;5007539;28;20558;-22
2021/12/12 08:24:39;;;;;;;7.57;4.37;;;9.90;99.90;;;;;;5018265;28;20313;-22
2021/12/12 08:27:10;;;;;;;5.40;3.80;;;9.90;99.90;;;;;;5018388;28;20208;-22
2021/12/12 08:29:38;;;;;;;8.50;4.27;;;9.90;99.90;;;;;;5013341;28;20690;-22
2021/12/12 08:32:08;;;;;;;8.10;4.50;;;9.90;99.90;;;;;;5021576;28;20770;-22
2021/12/12 08:34:55;;;;;;;7.97;4.80;;;9.90;99.90;;;;;;5011051;28;20205;-22
2021/12/12 08:37:25;;;;;;;9.60;4.40;;;9.90;99.90;;;;;;5011830;28;20224;-22
2021/12/12 08:39:55;;;;;;;10.03;4.40;;;10.00;99.90;;;;;;5021262;28;20212;-22
2021/12/12 08:42:27;;;;;;;9.83;5.10;;;10.00;99.90;;;;;;5011337;28;20205;-22
2021/12/12 08:44:56;;;;;;;8.87;4.87;;;10.00;99.90;;;;;;5007425;28;20315;-22
2021/12/12 08:47:25;;;;;;;8.87;4.90;;;10.00;99.90;;;;;;5016655;28;20220;-22
2021/12/12 08:49:55;;;;;;;10.93;4.93;;;10.00;99.90;;;;;;5027544;28;20553;-22
2021/12/12 08:52:33;;;;;;;12.17;5.33;;;10.00;99.90;;;;;;5021469;28;20621;-22
2021/12/12 08:55:07;;;;;;;9.90;5.00;;;10.00;99.90;;;;;;5026132;28;20661;-24
2021/12/12 08:57:46;;;;;;;8.03;4.43;;;10.00;99.90;;;;;;5025636;28;20299;-25
2021/12/12 09:00:39;;;;;;;10.67;4.60;;;10.00;99.90;;;;;;5031410;28;20336;-24
2021/12/12 09:03:08;;;;;;;7.57;4.53;;;10.00;99.90;;;;;;5014775;28;20225;-24
2021/12/12 09:05:37;;;;;;;9.90;4.73;;;10.00;99.90;;;;;;5029690;28;20565;-24
2021/12/12 09:08:36;;;;;;;11.80;5.30;;;10.10;99.90;;;;;;5010740;28;20296;-24
2021/12/12 09:11:18;;;;;;;11.27;5.40;;;10.10;99.90;;;;;;5013039;28;20201;-24
2021/12/12 09:14:10;;;;;;;8.23;4.97;;;10.10;99.90;;;;;;5010623;28;20312;-24
2021/12/12 09:16:47;;;;;;;7.93;4.80;;;10.10;99.90;;;;;;5019150;28;20197;-24
2021/12/12 09:19:25;;;;;;;8.03;4.80;;;10.10;99.90;;;;;;5016660;28;20211;-24
2021/12/12 09:22:07;;;;;;;8.40;4.90;;;10.10;99.90;;;;;;5017594;28;20639;-24
2021/12/12 09:24:46;;;;;;;7.87;4.37;;;10.20;99.90;;;;;;5011189;28;20308;-24
2021/12/12 09:27:30;;;;;;;11.63;5.10;;;10.20;99.90;;;;;;5017135;28;20201;-24
2021/12/12 09:30:05;;;;;;;8.47;5.10;;;10.20;99.90;;;;;;5023853;28;20209;-24
2021/12/12 09:32:44;;;;;;;10.53;4.77;;;10.20;99.90;;;;;;5016279;28;20205;-24
2021/12/12 09:35:23;;;;;;;8.40;5.07;;;10.20;99.90;;;;;;5018565;28;20205;-24
2021/12/12 09:38:10;;;;;;;8.00;4.97;;;10.20;99.90;;;;;;5012026;28;20559;-24
2021/12/12 09:41:17;;;;;;;8.03;5.13;;;10.20;99.90;;;;;;5010904;28;20217;-24
2021/12/12 09:44:31;;;;;;;7.83;4.93;;;10.30;99.90;;;;;;5010477;28;20251;-24
2021/12/12 09:47:26;;;;;;;11.70;5.40;;;10.30;99.90;;;;;;5017117;28;20307;-24
2021/12/12 09:53:04;;;;;;;8.07;4.63;;;10.30;99.90;;;;;;5023449;28;20670;-24
2021/12/12 09:55:40;;;;;;;6.87;4.03;;;10.40;99.90;;;;;;5024905;28;20216;-24
2021/12/12 09:58:34;;;;;;;9.37;4.87;;;10.40;99.90;;;;;;5010231;28;20223;-24
2021/12/12 10:01:09;;;;;;;6.80;4.40;;;10.50;99.90;;;;;;5021615;28;20756;-24
2021/12/12 10:04:05;;;;;;;10.17;4.90;;;10.50;99.90;;;;;;5010242;28;20227;-24
2021/12/12 10:06:45;;;;;;;9.47;4.90;;;10.60;99.90;;;;;;5010559;28;20194;-24
2021/12/12 10:09:21;;;;;;;7.50;4.40;;;10.60;99.90;;;;;;5010341;28;20660;-24
2021/12/12 10:12:02;;;;;;;7.57;4.77;;;10.60;99.90;;;;;;5012005;28;20309;-23
2021/12/12 10:14:52;;;;;;;7.43;4.73;;;10.60;99.90;;;;;;5020758;28;20228;-24
2021/12/12 10:17:20;;;;;;;6.47;4.37;;;10.60;99.90;;;;;;5013222;28;20198;-24
2021/12/12 10:20:02;;;;;;;5.23;4.20;;;10.60;99.90;;;;;;5019033;28;20260;-24
2021/12/12 10:23:05;;;;;;;6.23;4.23;;;10.70;99.90;;;;;;5027452;28;20200;-24
2021/12/12 10:25:52;;;;;;;6.93;4.60;;;10.70;99.90;;;;;;5016148;28;20305;-24
2021/12/12 10:28:19;;;;;;;7.63;4.47;;;10.70;99.90;;;;;;5016136;28;20646;-24
2021/12/12 10:30:55;;;;;;;5.43;4.10;;;10.70;99.90;;;;;;5015913;28;20589;-24
2021/12/12 10:33:39;;;;;;;6.37;4.27;;;10.80;99.90;;;;;;5014195;28;20205;-24
2021/12/12 10:36:29;;;;;;;5.77;4.60;;;10.80;99.90;;;;;;5010778;28;20743;-24
2021/12/12 10:39:08;;;;;;;6.43;4.33;;;10.80;99.90;;;;;;5007045;28;20209;-24
2021/12/12 10:41:47;;;;;;;7.67;4.30;;;10.90;99.90;;;;;;5008254;28;20292;-24
2021/12/12 10:44:23;;;;;;;6.30;4.17;;;10.90;99.90;;;;;;5009311;28;20567;-22
2021/12/12 10:47:05;;;;;;;6.63;4.67;;;10.90;99.90;;;;;;5019644;28;20213;-22
2021/12/12 10:49:43;;;;;;;6.37;4.60;;;11.00;99.90;;;;;;5019253;28;20220;-22
2021/12/12 10:52:20;;;;;;;7.67;4.53;;;11.00;99.90;;;;;;5018034;28;20229;-22
2021/12/12 10:54:55;;;;;;;7.53;4.83;;;11.00;99.90;;;;;;5014885;28;20669;-22
2021/12/12 10:57:26;;;;;;;6.63;4.37;;;11.00;99.90;;;;;;5015931;28;20292;-22
2021/12/12 10:59:56;;;;;;;5.83;4.97;;;11.00;99.90;;;;;;5020924;28;20650;-24
2021/12/12 11:02:34;;;;;;;6.47;4.73;;;11.10;99.90;;;;;;5019499;28;20212;-22
2021/12/12 11:05:11;;;;;;;7.47;5.27;;;11.10;99.90;;;;;;5012430;28;20223;-22
2021/12/12 11:07:46;;;;;;;7.63;4.90;;;11.10;99.90;;;;;;5011127;28;20572;-22
2021/12/12 11:10:31;;;;;;;6.23;5.10;;;11.10;99.90;;;;;;5008961;28;20212;-22
2021/12/12 11:13:04;;;;;;;6.73;5.37;;;11.20;99.90;;;;;;5008902;28;20669;-23
2021/12/12 11:15:48;;;;;;;5.53;4.50;;;11.20;99.90;;;;;;5014186;28;20679;-23
2021/12/12 11:18:30;;;;;;;5.90;4.93;;;11.20;99.90;;;;;;5008504;28;20233;-22
2021/12/12 11:21:10;;;;;;;5.57;4.63;;;11.20;99.90;;;;;;5010714;28;20221;-24
2021/12/12 11:23:52;;;;;;;6.67;5.00;;;11.20;99.90;;;;;;5026296;28;20208;-25
2021/12/12 11:26:27;;;;;;;5.13;4.50;;;11.30;99.90;;;;;;5022379;28;20217;-25
2021/12/12 11:29:03;;;;;;;6.97;4.93;;;11.30;99.90;;;;;;5025804;28;20216;-25
2021/12/12 11:31:35;;;;;;;6.67;4.93;;;11.30;99.90;;;;;;5010036;28;20224;-25
2021/12/12 11:34:05;;;;;;;5.17;4.60;;;11.30;99.90;;;;;;5022291;28;20204;-25
2021/12/12 11:36:58;;;;;;;6.13;4.47;;;11.30;99.90;;;;;;5009158;28;20719;-24
2021/12/12 11:39:39;;;;;;;7.60;4.90;;;11.40;99.90;;;;;;5021985;28;20624;-25
2021/12/12 11:42:20;;;;;;;6.00;4.83;;;11.30;99.90;;;;;;5016160;28;20229;-24
2021/12/12 11:44:56;;;;;;;5.93;5.03;;;11.40;99.90;;;;;;5011032;28;20224;-25
2021/12/12 11:47:51;;;;;;;6.90;4.30;;;11.40;99.90;;;;;;5025178;28;20295;-24
2021/12/12 11:50:36;;;;;;;5.43;4.70;;;11.40;99.90;;;;;;5024731;28;20300;-24
2021/12/12 11:53:08;;;;;;;6.20;4.70;;;11.50;99.90;;;;;;5016088;28;20208;-24
2021/12/12 11:55:47;;;;;;;6.47;4.60;;;11.40;99.90;;;;;;5008416;28;20672;-25
2021/12/12 11:58:46;;;;;;;7.57;4.77;;;11.50;99.90;;;;;;5011309;28;20243;-25
2021/12/12 12:01:25;;;;;;;5.43;4.40;;;11.50;99.90;;;;;;5026461;28;20303;-24
2021/12/12 12:04:20;;;;;;;5.47;4.37;;;11.50;99.90;;;;;;5012080;28;20248;-25
2021/12/12 12:07:19;;;;;;;5.57;4.30;;;11.60;99.90;;;;;;5007777;28;20225;-25
2021/12/12 12:10:00;;;;;;;4.33;3.63;;;11.60;99.90;;;;;;5006805;28;20206;-24
2021/12/12 12:12:36;;;;;;;5.73;4.30;;;11.60;99.90;;;;;;5007867;28;20201;-25
2021/12/12 12:15:25;;;;;;;5.50;4.23;;;11.60;99.90;;;;;;5020211;28;20217;-25
2021/12/12 12:18:24;;;;;;;5.17;3.97;;;11.60;99.90;;;;;;5005855;28;20280;-25
2021/12/12 12:21:18;;;;;;;5.20;4.30;;;11.60;99.90;;;;;;5007838;28;20268;-25
2021/12/12 12:24:19;;;;;;;4.30;3.60;;;11.60;99.90;;;;;;5008676;28;20224;-25
2021/12/12 12:26:58;;;;;;;5.67;4.20;;;11.70;99.90;;;;;;5014300;28;20236;-25
2021/12/12 12:29:30;;;;;;;4.80;3.93;;;11.60;99.90;;;;;;5007713;28;20201;-25
2021/12/12 12:32:22;;;;;;;4.30;3.67;;;11.60;99.90;;;;;;5008328;28;20221;-25
2021/12/12 12:35:17;;;;;;;4.40;3.73;;;11.70;99.90;;;;;;5007804;28;20210;-25
2021/12/12 12:38:15;;;;;;;4.07;3.67;;;11.70;99.90;;;;;;5006762;28;20209;-25
2021/12/12 12:41:20;;;;;;;4.60;3.83;;;11.70;99.90;;;;;;5008410;28;20217;-25
2021/12/12 12:44:25;;;;;;;3.93;3.37;;;11.70;99.90;;;;;;5007859;28;20224;-25
2021/12/12 12:47:27;;;;;;;4.00;3.57;;;11.70;99.90;;;;;;5007678;28;20263;-25
2021/12/12 12:50:26;;;;;;;5.47;3.30;;;11.70;99.90;;;;;;5008612;28;20239;-25
2021/12/12 12:53:16;;;;;;;4.27;3.30;;;11.80;99.90;;;;;;5006475;28;20300;-25
2021/12/12 12:56:23;;;;;;;4.03;3.63;;;11.80;99.90;;;;;;5007287;28;20634;-25
2021/12/12 12:59:32;;;;;;;3.73;3.13;;;11.80;99.90;;;;;;5007630;28;20240;-25
2021/12/12 13:02:27;;;;;;;4.90;3.83;;;11.80;99.90;;;;;;5007199;28;20201;-25
2021/12/12 13:05:01;;;;;;;5.23;3.90;;;11.80;99.90;;;;;;5007643;28;20233;-25
2021/12/12 13:07:40;;;;;;;3.77;3.47;;;11.80;99.90;;;;;;5006963;28;20202;-23
2021/12/12 13:10:17;;;;;;;3.63;3.20;;;11.80;99.90;;;;;;5021636;28;20212;-23
2021/12/12 13:13:07;;;;;;;3.70;3.23;;;11.80;99.90;;;;;;5013445;28;20213;-23
2021/12/12 13:15:39;;;;;;;3.60;3.30;;;11.90;99.90;;;;;;5007767;28;20206;-23
2021/12/12 13:18:31;;;;;;;3.77;3.30;;;11.90;99.90;;;;;;5007406;28;20205;-23
2021/12/12 13:21:10;;;;;;;4.07;3.50;;;11.90;99.90;;;;;;5011040;28;20640;-23
2021/12/12 13:23:38;;;;;;;3.70;3.20;;;11.90;99.90;;;;;;5006563;28;20213;-23
2021/12/12 13:26:11;;;;;;;3.60;3.27;;;11.90;99.90;;;;;;5007646;28;20241;-23
2021/12/12 13:28:51;;;;;;;2.77;2.47;;;11.90;99.90;;;;;;5022567;28;20212;-23
2021/12/12 13:31:39;;;;;;;3.77;2.67;;;12.00;99.90;;;;;;5025484;28;20197;-23
2021/12/12 13:34:24;;;;;;;2.73;2.43;;;12.00;99.90;;;;;;5025624;28;20292;-23
2021/12/12 13:37:06;;;;;;;3.20;2.90;;;12.00;99.90;;;;;;5015756;28;20216;-23
2021/12/12 13:40:11;;;;;;;3.20;2.90;;;12.00;99.90;;;;;;5022173;28;20216;-23
2021/12/12 13:43:07;;;;;;;3.00;2.70;;;12.10;99.90;;;;;;5015270;28;20197;-23
2021/12/12 13:45:45;;;;;;;3.27;2.97;;;12.10;99.90;;;;;;5013722;28;20221;-23
2021/12/12 13:48:32;;;;;;;2.53;2.10;;;12.10;99.90;;;;;;5019760;28;20307;-23
2021/12/12 13:51:14;;;;;;;2.83;2.50;;;12.20;99.90;;;;;;5027558;28;20336;-23
2021/12/12 13:53:56;;;;;;;3.10;2.80;;;12.20;99.90;;;;;;5023753;28;20197;-23
2021/12/12 13:56:46;;;;;;;3.43;2.37;;;12.20;99.90;;;;;;5015570;28;20200;-23
2021/12/12 13:59:15;;;;;;;2.93;2.63;;;12.20;99.90;;;;;;5016206;28;20208;-23
2021/12/12 14:02:09;;;;;;;2.77;2.50;;;12.20;99.90;;;;;;5023386;28;20735;-23
2021/12/12 14:04:49;;;;;;;2.83;2.50;;;12.30;99.90;;;;;;5016282;28;20688;-23
2021/12/12 14:07:23;;;;;;;2.93;2.70;;;12.30;99.90;;;;;;5009743;28;20198;-23